sensor_id;sensor_type;location;lat;lon;timestamp;P1;durP1;ratioP1;P2;durP2;ratioP2
41837;SDS011;27511;52.042;5.178;2022-10-22T00:01:40;5.70;;;3.80;;
41837;SDS011;27511;52.042;5.178;2022-10-22T00:04:06;4.30;;;3.40;;
41837;SDS011;27511;52.042;5.178;2022-10-22T00:06:32;7.07;;;3.35;;
41837;SDS011;27511;52.042;5.178;2022-10-22T00:08:57;6.22;;;3.50;;
41837;SDS011;27511;52.042;5.178;2022-10-22T00:11:23;5.03;;;3.33;;
41837;SDS011;27511;52.042;5.178;2022-10-22T00:13:49;5.40;;;3.30;;
41837;SDS011;27511;52.042;5.178;2022-10-22T00:16:14;6.28;;;3.50;;
41837;SDS011;27511;52.042;5.178;2022-10-22T00:18:40;4.75;;;3.42;;
41837;SDS011;27511;52.042;5.178;2022-10-22T00:21:06;6.63;;;3.33;;
41837;SDS011;27511;52.042;5.178;2022-10-22T00:23:32;6.60;;;3.47;;
41837;SDS011;27511;52.042;5.178;2022-10-22T00:25:57;5.25;;;3.63;;
41837;SDS011;27511;52.042;5.178;2022-10-22T00:28:23;7.00;;;3.60;;
41837;SDS011;27511;52.042;5.178;2022-10-22T00:30:54;6.57;;;3.50;;
41837;SDS011;27511;52.042;5.178;2022-10-22T00:33:24;5.40;;;3.75;;
41837;SDS011;27511;52.042;5.178;2022-10-22T00:35:50;5.75;;;3.80;;
41837;SDS011;27511;52.042;5.178;2022-10-22T00:38:16;9.07;;;4.80;;
41837;SDS011;27511;52.042;5.178;2022-10-22T00:40:41;3.88;;;3.42;;
41837;SDS011;27511;52.042;5.178;2022-10-22T00:43:11;6.03;;;3.80;;
41837;SDS011;27511;52.042;5.178;2022-10-22T00:45:38;7.90;;;3.97;;
41837;SDS011;27511;52.042;5.178;2022-10-22T00:48:11;6.68;;;3.80;;
41837;SDS011;27511;52.042;5.178;2022-10-22T00:50:41;5.28;;;3.80;;
41837;SDS011;27511;52.042;5.178;2022-10-22T00:53:15;5.88;;;3.78;;
41837;SDS011;27511;52.042;5.178;2022-10-22T00:55:48;6.05;;;3.88;;
41837;SDS011;27511;52.042;5.178;2022-10-22T00:58:16;5.75;;;3.85;;
41837;SDS011;27511;52.042;5.178;2022-10-22T01:00:45;6.90;;;4.43;;
41837;SDS011;27511;52.042;5.178;2022-10-22T01:03:11;5.45;;;4.07;;
41837;SDS011;27511;52.042;5.178;2022-10-22T01:05:59;6.35;;;4.47;;
41837;SDS011;27511;52.042;5.178;2022-10-22T01:11:25;7.00;;;4.15;;
41837;SDS011;27511;52.042;5.178;2022-10-22T01:19:28;5.93;;;4.13;;
41837;SDS011;27511;52.042;5.178;2022-10-22T01:22:30;4.95;;;3.47;;
41837;SDS011;27511;52.042;5.178;2022-10-22T01:25:33;5.45;;;3.38;;
41837;SDS011;27511;52.042;5.178;2022-10-22T01:28:06;6.07;;;3.92;;
41837;SDS011;27511;52.042;5.178;2022-10-22T01:30:36;4.65;;;3.50;;
41837;SDS011;27511;52.042;5.178;2022-10-22T01:33:04;5.97;;;3.38;;
41837;SDS011;27511;52.042;5.178;2022-10-22T01:35:34;5.78;;;3.42;;
41837;SDS011;27511;52.042;5.178;2022-10-22T01:38:03;8.43;;;3.60;;
41837;SDS011;27511;52.042;5.178;2022-10-22T01:40:31;6.22;;;3.45;;
41837;SDS011;27511;52.042;5.178;2022-10-22T01:42:58;5.30;;;3.40;;
41837;SDS011;27511;52.042;5.178;2022-10-22T01:45:25;5.20;;;3.35;;
41837;SDS011;27511;52.042;5.178;2022-10-22T01:48:39;6.10;;;3.15;;
41837;SDS011;27511;52.042;5.178;2022-10-22T01:51:04;4.50;;;3.30;;
41837;SDS011;27511;52.042;5.178;2022-10-22T02:01:53;8.32;;;3.38;;
41837;SDS011;27511;52.042;5.178;2022-10-22T02:04:22;6.28;;;3.50;;
41837;SDS011;27511;52.042;5.178;2022-10-22T02:06:54;6.13;;;3.20;;
41837;SDS011;27511;52.042;5.178;2022-10-22T02:09:23;7.35;;;4.00;;
41837;SDS011;27511;52.042;5.178;2022-10-22T02:11:51;6.32;;;3.35;;
41837;SDS011;27511;52.042;5.178;2022-10-22T02:14:18;6.40;;;3.58;;
41837;SDS011;27511;52.042;5.178;2022-10-22T02:16:45;7.13;;;3.85;;
41837;SDS011;27511;52.042;5.178;2022-10-22T02:19:14;4.78;;;3.13;;
41837;SDS011;27511;52.042;5.178;2022-10-22T02:21:41;6.70;;;3.78;;
41837;SDS011;27511;52.042;5.178;2022-10-22T02:24:08;7.57;;;3.70;;
41837;SDS011;27511;52.042;5.178;2022-10-22T02:26:34;6.25;;;3.47;;
41837;SDS011;27511;52.042;5.178;2022-10-22T02:29:24;5.68;;;3.35;;
41837;SDS011;27511;52.042;5.178;2022-10-22T02:32:03;6.75;;;3.10;;
41837;SDS011;27511;52.042;5.178;2022-10-22T02:34:31;7.82;;;3.70;;
41837;SDS011;27511;52.042;5.178;2022-10-22T02:36:57;7.85;;;3.05;;
41837;SDS011;27511;52.042;5.178;2022-10-22T02:39:26;5.65;;;3.58;;
41837;SDS011;27511;52.042;5.178;2022-10-22T02:41:53;7.63;;;3.33;;
41837;SDS011;27511;52.042;5.178;2022-10-22T02:44:20;5.18;;;3.08;;
41837;SDS011;27511;52.042;5.178;2022-10-22T02:46:46;7.93;;;3.72;;
41837;SDS011;27511;52.042;5.178;2022-10-22T02:49:12;5.05;;;3.40;;
41837;SDS011;27511;52.042;5.178;2022-10-22T02:51:38;13.02;;;3.47;;
41837;SDS011;27511;52.042;5.178;2022-10-22T02:54:03;6.95;;;3.25;;
41837;SDS011;27511;52.042;5.178;2022-10-22T02:56:29;7.32;;;3.20;;
41837;SDS011;27511;52.042;5.178;2022-10-22T02:58:54;7.88;;;3.60;;
41837;SDS011;27511;52.042;5.178;2022-10-22T03:01:20;4.32;;;2.97;;
41837;SDS011;27511;52.042;5.178;2022-10-22T03:03:45;7.50;;;4.20;;
41837;SDS011;27511;52.042;5.178;2022-10-22T03:06:11;7.88;;;3.13;;
41837;SDS011;27511;52.042;5.178;2022-10-22T03:08:36;7.32;;;3.90;;
41837;SDS011;27511;52.042;5.178;2022-10-22T03:11:02;7.72;;;4.53;;
41837;SDS011;27511;52.042;5.178;2022-10-22T03:13:28;7.85;;;4.00;;
41837;SDS011;27511;52.042;5.178;2022-10-22T03:15:53;5.90;;;3.53;;
41837;SDS011;27511;52.042;5.178;2022-10-22T03:18:19;6.70;;;4.32;;
41837;SDS011;27511;52.042;5.178;2022-10-22T03:20:44;7.15;;;3.28;;
41837;SDS011;27511;52.042;5.178;2022-10-22T03:23:10;6.22;;;3.33;;
41837;SDS011;27511;52.042;5.178;2022-10-22T03:25:38;5.72;;;3.80;;
41837;SDS011;27511;52.042;5.178;2022-10-22T03:28:07;5.15;;;3.13;;
41837;SDS011;27511;52.042;5.178;2022-10-22T03:30:34;4.70;;;3.30;;
41837;SDS011;27511;52.042;5.178;2022-10-22T03:33:00;8.43;;;4.03;;
41837;SDS011;27511;52.042;5.178;2022-10-22T03:35:26;12.50;;;4.20;;
41837;SDS011;27511;52.042;5.178;2022-10-22T03:37:52;7.00;;;3.88;;
41837;SDS011;27511;52.042;5.178;2022-10-22T03:40:18;6.80;;;4.07;;
41837;SDS011;27511;52.042;5.178;2022-10-22T03:42:44;5.15;;;3.88;;
41837;SDS011;27511;52.042;5.178;2022-10-22T03:45:10;6.43;;;4.13;;
41837;SDS011;27511;52.042;5.178;2022-10-22T03:47:36;8.38;;;3.95;;
41837;SDS011;27511;52.042;5.178;2022-10-22T03:50:02;7.30;;;4.07;;
41837;SDS011;27511;52.042;5.178;2022-10-22T03:52:33;7.05;;;3.95;;
41837;SDS011;27511;52.042;5.178;2022-10-22T03:55:00;6.88;;;4.32;;
41837;SDS011;27511;52.042;5.178;2022-10-22T03:57:26;6.75;;;3.47;;
41837;SDS011;27511;52.042;5.178;2022-10-22T03:59:52;13.52;;;5.28;;
41837;SDS011;27511;52.042;5.178;2022-10-22T04:02:17;5.57;;;4.15;;
41837;SDS011;27511;52.042;5.178;2022-10-22T04:04:43;8.68;;;4.75;;
41837;SDS011;27511;52.042;5.178;2022-10-22T04:07:08;8.55;;;4.45;;
41837;SDS011;27511;52.042;5.178;2022-10-22T04:09:34;6.25;;;3.90;;
41837;SDS011;27511;52.042;5.178;2022-10-22T04:12:00;9.68;;;4.90;;
41837;SDS011;27511;52.042;5.178;2022-10-22T04:14:26;7.03;;;4.43;;
41837;SDS011;27511;52.042;5.178;2022-10-22T04:16:52;10.05;;;4.53;;
41837;SDS011;27511;52.042;5.178;2022-10-22T04:19:17;7.60;;;4.72;;
41837;SDS011;27511;52.042;5.178;2022-10-22T04:21:43;7.35;;;4.43;;
41837;SDS011;27511;52.042;5.178;2022-10-22T04:24:09;5.63;;;4.03;;
41837;SDS011;27511;52.042;5.178;2022-10-22T04:26:35;9.90;;;4.07;;
41837;SDS011;27511;52.042;5.178;2022-10-22T04:29:00;7.80;;;4.32;;
41837;SDS011;27511;52.042;5.178;2022-10-22T04:31:26;5.57;;;4.10;;
41837;SDS011;27511;52.042;5.178;2022-10-22T04:33:55;7.55;;;4.28;;
41837;SDS011;27511;52.042;5.178;2022-10-22T04:36:23;9.93;;;4.25;;
41837;SDS011;27511;52.042;5.178;2022-10-22T04:38:56;9.23;;;4.40;;
41837;SDS011;27511;52.042;5.178;2022-10-22T04:41:28;9.50;;;4.90;;
41837;SDS011;27511;52.042;5.178;2022-10-22T04:43:56;12.10;;;4.20;;
41837;SDS011;27511;52.042;5.178;2022-10-22T04:46:22;7.90;;;4.38;;
41837;SDS011;27511;52.042;5.178;2022-10-22T04:48:51;7.07;;;3.42;;
41837;SDS011;27511;52.042;5.178;2022-10-22T04:51:17;9.63;;;4.15;;
41837;SDS011;27511;52.042;5.178;2022-10-22T04:53:44;6.38;;;3.80;;
41837;SDS011;27511;52.042;5.178;2022-10-22T04:56:18;7.78;;;3.78;;
41837;SDS011;27511;52.042;5.178;2022-10-22T04:58:49;7.95;;;3.85;;
41837;SDS011;27511;52.042;5.178;2022-10-22T05:01:17;9.48;;;3.78;;
41837;SDS011;27511;52.042;5.178;2022-10-22T05:03:45;4.28;;;3.25;;
41837;SDS011;27511;52.042;5.178;2022-10-22T05:06:12;7.18;;;3.80;;
41837;SDS011;27511;52.042;5.178;2022-10-22T05:08:39;6.13;;;3.47;;
41837;SDS011;27511;52.042;5.178;2022-10-22T05:11:11;8.55;;;3.60;;
41837;SDS011;27511;52.042;5.178;2022-10-22T05:13:41;9.63;;;5.15;;
41837;SDS011;27511;52.042;5.178;2022-10-22T05:16:07;7.43;;;3.80;;
41837;SDS011;27511;52.042;5.178;2022-10-22T05:18:34;8.57;;;4.00;;
41837;SDS011;27511;52.042;5.178;2022-10-22T05:21:01;8.02;;;3.50;;
41837;SDS011;27511;52.042;5.178;2022-10-22T05:23:27;7.68;;;3.20;;
41837;SDS011;27511;52.042;5.178;2022-10-22T05:25:53;5.50;;;4.00;;
41837;SDS011;27511;52.042;5.178;2022-10-22T05:28:18;7.53;;;3.83;;
41837;SDS011;27511;52.042;5.178;2022-10-22T05:30:54;7.65;;;2.88;;
41837;SDS011;27511;52.042;5.178;2022-10-22T05:33:20;10.93;;;3.70;;
41837;SDS011;27511;52.042;5.178;2022-10-22T05:35:46;6.78;;;3.45;;
41837;SDS011;27511;52.042;5.178;2022-10-22T05:38:15;7.43;;;2.95;;
41837;SDS011;27511;52.042;5.178;2022-10-22T05:40:41;7.78;;;4.07;;
41837;SDS011;27511;52.042;5.178;2022-10-22T05:43:07;6.20;;;3.58;;
41837;SDS011;27511;52.042;5.178;2022-10-22T05:45:39;11.48;;;3.50;;
41837;SDS011;27511;52.042;5.178;2022-10-22T05:48:06;9.15;;;3.88;;
41837;SDS011;27511;52.042;5.178;2022-10-22T05:50:37;4.88;;;3.33;;
41837;SDS011;27511;52.042;5.178;2022-10-22T05:53:06;6.20;;;3.00;;
41837;SDS011;27511;52.042;5.178;2022-10-22T05:55:35;6.55;;;3.28;;
41837;SDS011;27511;52.042;5.178;2022-10-22T05:58:02;5.40;;;3.38;;
41837;SDS011;27511;52.042;5.178;2022-10-22T06:00:29;5.85;;;3.50;;
41837;SDS011;27511;52.042;5.178;2022-10-22T06:02:54;6.60;;;2.90;;
41837;SDS011;27511;52.042;5.178;2022-10-22T06:05:20;3.50;;;2.30;;
41837;SDS011;27511;52.042;5.178;2022-10-22T06:07:45;6.20;;;2.85;;
41837;SDS011;27511;52.042;5.178;2022-10-22T06:10:14;7.13;;;2.70;;
41837;SDS011;27511;52.042;5.178;2022-10-22T06:12:43;7.10;;;3.10;;
41837;SDS011;27511;52.042;5.178;2022-10-22T06:15:13;8.52;;;3.78;;
41837;SDS011;27511;52.042;5.178;2022-10-22T06:17:40;6.05;;;2.40;;
41837;SDS011;27511;52.042;5.178;2022-10-22T06:20:08;6.85;;;2.60;;
41837;SDS011;27511;52.042;5.178;2022-10-22T06:22:34;4.40;;;2.67;;
41837;SDS011;27511;52.042;5.178;2022-10-22T06:24:59;8.63;;;2.90;;
41837;SDS011;27511;52.042;5.178;2022-10-22T06:27:25;6.68;;;3.03;;
41837;SDS011;27511;52.042;5.178;2022-10-22T06:29:50;4.78;;;2.83;;
41837;SDS011;27511;52.042;5.178;2022-10-22T06:32:16;8.20;;;3.25;;
41837;SDS011;27511;52.042;5.178;2022-10-22T06:34:41;7.00;;;3.00;;
41837;SDS011;27511;52.042;5.178;2022-10-22T06:37:08;7.88;;;3.13;;
41837;SDS011;27511;52.042;5.178;2022-10-22T06:39:34;5.90;;;3.10;;
41837;SDS011;27511;52.042;5.178;2022-10-22T06:41:59;9.60;;;3.42;;
41837;SDS011;27511;52.042;5.178;2022-10-22T06:44:25;10.32;;;3.42;;
41837;SDS011;27511;52.042;5.178;2022-10-22T06:46:50;9.10;;;3.50;;
41837;SDS011;27511;52.042;5.178;2022-10-22T06:49:17;7.15;;;2.78;;
41837;SDS011;27511;52.042;5.178;2022-10-22T06:51:43;10.43;;;3.58;;
41837;SDS011;27511;52.042;5.178;2022-10-22T06:54:09;10.18;;;3.65;;
41837;SDS011;27511;52.042;5.178;2022-10-22T06:56:35;7.85;;;2.90;;
41837;SDS011;27511;52.042;5.178;2022-10-22T06:59:01;7.97;;;3.53;;
41837;SDS011;27511;52.042;5.178;2022-10-22T07:01:28;5.90;;;3.00;;
41837;SDS011;27511;52.042;5.178;2022-10-22T07:03:55;9.98;;;3.20;;
41837;SDS011;27511;52.042;5.178;2022-10-22T07:06:21;10.57;;;2.88;;
41837;SDS011;27511;52.042;5.178;2022-10-22T07:08:48;6.18;;;2.80;;
41837;SDS011;27511;52.042;5.178;2022-10-22T07:11:14;10.25;;;3.00;;
41837;SDS011;27511;52.042;5.178;2022-10-22T07:13:44;7.85;;;2.80;;
41837;SDS011;27511;52.042;5.178;2022-10-22T07:16:11;9.90;;;3.00;;
41837;SDS011;27511;52.042;5.178;2022-10-22T07:18:37;5.25;;;2.58;;
41837;SDS011;27511;52.042;5.178;2022-10-22T07:21:04;10.20;;;3.13;;
41837;SDS011;27511;52.042;5.178;2022-10-22T07:23:30;10.77;;;3.08;;
41837;SDS011;27511;52.042;5.178;2022-10-22T07:25:56;7.82;;;2.55;;
41837;SDS011;27511;52.042;5.178;2022-10-22T07:28:22;9.35;;;2.65;;
41837;SDS011;27511;52.042;5.178;2022-10-22T07:30:47;4.45;;;2.53;;
41837;SDS011;27511;52.042;5.178;2022-10-22T07:33:13;9.85;;;2.55;;
41837;SDS011;27511;52.042;5.178;2022-10-22T07:35:38;5.90;;;2.58;;
41837;SDS011;27511;52.042;5.178;2022-10-22T07:38:04;5.82;;;2.67;;
41837;SDS011;27511;52.042;5.178;2022-10-22T07:40:31;8.55;;;3.13;;
41837;SDS011;27511;52.042;5.178;2022-10-22T07:42:56;9.88;;;3.10;;
41837;SDS011;27511;52.042;5.178;2022-10-22T07:45:22;3.72;;;2.40;;
41837;SDS011;27511;52.042;5.178;2022-10-22T07:47:48;5.20;;;2.20;;
41837;SDS011;27511;52.042;5.178;2022-10-22T07:50:13;9.57;;;2.25;;
41837;SDS011;27511;52.042;5.178;2022-10-22T07:52:39;9.52;;;2.88;;
41837;SDS011;27511;52.042;5.178;2022-10-22T07:55:05;7.60;;;2.78;;
41837;SDS011;27511;52.042;5.178;2022-10-22T07:57:31;8.57;;;2.63;;
41837;SDS011;27511;52.042;5.178;2022-10-22T07:59:56;5.55;;;2.10;;
41837;SDS011;27511;52.042;5.178;2022-10-22T08:02:23;5.18;;;2.00;;
41837;SDS011;27511;52.042;5.178;2022-10-22T08:04:49;7.22;;;2.80;;
41837;SDS011;27511;52.042;5.178;2022-10-22T08:07:15;10.48;;;2.45;;
41837;SDS011;27511;52.042;5.178;2022-10-22T08:09:41;5.00;;;2.40;;
41837;SDS011;27511;52.042;5.178;2022-10-22T08:12:07;4.32;;;2.58;;
41837;SDS011;27511;52.042;5.178;2022-10-22T08:14:33;6.90;;;2.40;;
41837;SDS011;27511;52.042;5.178;2022-10-22T08:16:58;4.65;;;2.38;;
41837;SDS011;27511;52.042;5.178;2022-10-22T08:19:24;7.70;;;2.35;;
41837;SDS011;27511;52.042;5.178;2022-10-22T08:21:49;8.82;;;2.15;;
41837;SDS011;27511;52.042;5.178;2022-10-22T08:24:15;5.93;;;2.25;;
41837;SDS011;27511;52.042;5.178;2022-10-22T08:26:41;5.95;;;2.08;;
41837;SDS011;27511;52.042;5.178;2022-10-22T08:29:06;5.15;;;2.10;;
41837;SDS011;27511;52.042;5.178;2022-10-22T08:31:32;5.60;;;2.05;;
41837;SDS011;27511;52.042;5.178;2022-10-22T08:33:58;8.13;;;2.22;;
41837;SDS011;27511;52.042;5.178;2022-10-22T08:36:24;8.40;;;1.90;;
41837;SDS011;27511;52.042;5.178;2022-10-22T08:38:49;7.53;;;2.53;;
41837;SDS011;27511;52.042;5.178;2022-10-22T08:41:16;7.40;;;2.45;;
41837;SDS011;27511;52.042;5.178;2022-10-22T08:49:33;12.13;;;2.55;;
41837;SDS011;27511;52.042;5.178;2022-10-22T08:52:02;9.13;;;2.30;;
41837;SDS011;27511;52.042;5.178;2022-10-22T08:57:10;9.30;;;2.38;;
41837;SDS011;27511;52.042;5.178;2022-10-22T08:59:56;4.95;;;1.73;;
41837;SDS011;27511;52.042;5.178;2022-10-22T09:05:19;9.25;;;2.47;;
41837;SDS011;27511;52.042;5.178;2022-10-22T09:07:52;8.50;;;2.10;;
41837;SDS011;27511;52.042;5.178;2022-10-22T09:10:20;7.85;;;2.72;;
41837;SDS011;27511;52.042;5.178;2022-10-22T09:12:49;5.50;;;2.22;;
41837;SDS011;27511;52.042;5.178;2022-10-22T09:15:15;5.65;;;2.95;;
41837;SDS011;27511;52.042;5.178;2022-10-22T09:18:04;10.77;;;2.58;;
41837;SDS011;27511;52.042;5.178;2022-10-22T09:20:49;3.42;;;1.63;;
41837;SDS011;27511;52.042;5.178;2022-10-22T09:23:22;4.25;;;1.80;;
41837;SDS011;27511;52.042;5.178;2022-10-22T09:25:56;6.63;;;2.00;;
41837;SDS011;27511;52.042;5.178;2022-10-22T09:28:22;7.60;;;1.83;;
41837;SDS011;27511;52.042;5.178;2022-10-22T09:30:47;4.70;;;1.73;;
41837;SDS011;27511;52.042;5.178;2022-10-22T09:35:45;7.28;;;2.33;;
41837;SDS011;27511;52.042;5.178;2022-10-22T09:38:15;3.25;;;1.63;;
41837;SDS011;27511;52.042;5.178;2022-10-22T09:40:45;10.93;;;2.50;;
41837;SDS011;27511;52.042;5.178;2022-10-22T09:43:13;8.18;;;2.17;;
41837;SDS011;27511;52.042;5.178;2022-10-22T09:45:39;5.68;;;1.80;;
41837;SDS011;27511;52.042;5.178;2022-10-22T09:48:22;5.10;;;1.50;;
41837;SDS011;27511;52.042;5.178;2022-10-22T09:50:59;8.98;;;1.75;;
41837;SDS011;27511;52.042;5.178;2022-10-22T09:53:46;5.93;;;1.80;;
41837;SDS011;27511;52.042;5.178;2022-10-22T09:56:24;4.63;;;1.92;;
41837;SDS011;27511;52.042;5.178;2022-10-22T09:58:59;6.55;;;2.15;;
41837;SDS011;27511;52.042;5.178;2022-10-22T10:01:43;7.25;;;1.95;;
41837;SDS011;27511;52.042;5.178;2022-10-22T10:04:10;5.78;;;2.15;;
41837;SDS011;27511;52.042;5.178;2022-10-22T10:06:38;5.57;;;2.00;;
41837;SDS011;27511;52.042;5.178;2022-10-22T10:09:12;5.20;;;2.05;;
41837;SDS011;27511;52.042;5.178;2022-10-22T10:11:45;4.93;;;1.77;;
41837;SDS011;27511;52.042;5.178;2022-10-22T10:14:41;5.35;;;1.73;;
41837;SDS011;27511;52.042;5.178;2022-10-22T10:22:43;5.97;;;1.63;;
41837;SDS011;27511;52.042;5.178;2022-10-22T10:25:23;4.18;;;1.90;;
41837;SDS011;27511;52.042;5.178;2022-10-22T10:30:48;7.78;;;2.22;;
41837;SDS011;27511;52.042;5.178;2022-10-22T10:36:34;7.13;;;1.83;;
41837;SDS011;27511;52.042;5.178;2022-10-22T10:39:10;7.25;;;1.88;;
41837;SDS011;27511;52.042;5.178;2022-10-22T10:41:46;6.68;;;1.85;;
41837;SDS011;27511;52.042;5.178;2022-10-22T10:49:22;4.72;;;1.52;;
41837;SDS011;27511;52.042;5.178;2022-10-22T10:51:52;8.95;;;1.50;;
41837;SDS011;27511;52.042;5.178;2022-10-22T10:54:42;5.80;;;1.60;;
41837;SDS011;27511;52.042;5.178;2022-10-22T11:00:39;7.50;;;1.65;;
41837;SDS011;27511;52.042;5.178;2022-10-22T11:06:11;7.90;;;2.35;;
41837;SDS011;27511;52.042;5.178;2022-10-22T11:08:42;7.25;;;1.88;;
41837;SDS011;27511;52.042;5.178;2022-10-22T11:11:38;8.85;;;1.60;;
41837;SDS011;27511;52.042;5.178;2022-10-22T11:16:46;5.40;;;1.52;;
41837;SDS011;27511;52.042;5.178;2022-10-22T11:19:19;9.55;;;1.63;;
41837;SDS011;27511;52.042;5.178;2022-10-22T11:21:55;8.82;;;1.73;;
41837;SDS011;27511;52.042;5.178;2022-10-22T11:32:40;7.38;;;1.67;;
41837;SDS011;27511;52.042;5.178;2022-10-22T11:35:11;12.30;;;1.58;;
41837;SDS011;27511;52.042;5.178;2022-10-22T11:37:40;5.18;;;1.48;;
41837;SDS011;27511;52.042;5.178;2022-10-22T11:42:53;5.88;;;1.05;;
41837;SDS011;27511;52.042;5.178;2022-10-22T11:45:34;8.02;;;1.25;;
41837;SDS011;27511;52.042;5.178;2022-10-22T11:55:49;5.68;;;1.15;;
41837;SDS011;27511;52.042;5.178;2022-10-22T12:01:15;4.88;;;1.48;;
41837;SDS011;27511;52.042;5.178;2022-10-22T12:06:52;4.07;;;1.33;;
41837;SDS011;27511;52.042;5.178;2022-10-22T12:09:21;7.70;;;1.77;;
41837;SDS011;27511;52.042;5.178;2022-10-22T12:11:50;7.97;;;2.38;;
41837;SDS011;27511;52.042;5.178;2022-10-22T12:14:22;7.55;;;1.30;;
41837;SDS011;27511;52.042;5.178;2022-10-22T12:17:03;5.68;;;1.58;;
41837;SDS011;27511;52.042;5.178;2022-10-22T12:19:41;6.32;;;1.20;;
41837;SDS011;27511;52.042;5.178;2022-10-22T12:24:35;8.82;;;2.47;;
41837;SDS011;27511;52.042;5.178;2022-10-22T12:27:13;7.97;;;1.73;;
41837;SDS011;27511;52.042;5.178;2022-10-22T12:32:32;9.07;;;2.03;;
41837;SDS011;27511;52.042;5.178;2022-10-22T12:35:06;4.15;;;1.40;;
41837;SDS011;27511;52.042;5.178;2022-10-22T12:37:36;7.07;;;2.20;;
41837;SDS011;27511;52.042;5.178;2022-10-22T12:40:14;4.55;;;1.67;;
41837;SDS011;27511;52.042;5.178;2022-10-22T12:42:52;9.32;;;1.50;;
41837;SDS011;27511;52.042;5.178;2022-10-22T12:45:24;6.43;;;1.85;;
41837;SDS011;27511;52.042;5.178;2022-10-22T12:47:55;10.75;;;1.92;;
41837;SDS011;27511;52.042;5.178;2022-10-22T12:50:35;8.98;;;1.70;;
41837;SDS011;27511;52.042;5.178;2022-10-22T12:53:06;9.13;;;1.90;;
41837;SDS011;27511;52.042;5.178;2022-10-22T12:55:56;8.88;;;2.13;;
41837;SDS011;27511;52.042;5.178;2022-10-22T12:58:26;9.57;;;2.03;;
41837;SDS011;27511;52.042;5.178;2022-10-22T13:00:55;6.72;;;2.03;;
41837;SDS011;27511;52.042;5.178;2022-10-22T13:03:35;10.00;;;2.50;;
41837;SDS011;27511;52.042;5.178;2022-10-22T13:08:42;6.82;;;1.75;;
41837;SDS011;27511;52.042;5.178;2022-10-22T13:11:29;7.53;;;1.80;;
41837;SDS011;27511;52.042;5.178;2022-10-22T13:14:19;4.90;;;2.00;;
41837;SDS011;27511;52.042;5.178;2022-10-22T13:19:48;6.85;;;2.28;;
41837;SDS011;27511;52.042;5.178;2022-10-22T13:22:38;10.02;;;2.95;;
41837;SDS011;27511;52.042;5.178;2022-10-22T13:27:43;8.02;;;2.65;;
41837;SDS011;27511;52.042;5.178;2022-10-22T13:30:16;8.73;;;2.47;;
41837;SDS011;27511;52.042;5.178;2022-10-22T13:33:03;8.52;;;1.52;;
41837;SDS011;27511;52.042;5.178;2022-10-22T13:35:33;7.38;;;2.97;;
41837;SDS011;27511;52.042;5.178;2022-10-22T13:38:01;6.70;;;2.33;;
41837;SDS011;27511;52.042;5.178;2022-10-22T13:40:27;9.85;;;2.28;;
41837;SDS011;27511;52.042;5.178;2022-10-22T13:42:53;6.30;;;2.42;;
41837;SDS011;27511;52.042;5.178;2022-10-22T13:45:19;10.30;;;2.30;;
41837;SDS011;27511;52.042;5.178;2022-10-22T13:47:48;9.30;;;2.05;;
41837;SDS011;27511;52.042;5.178;2022-10-22T13:50:17;5.03;;;2.22;;
41837;SDS011;27511;52.042;5.178;2022-10-22T13:52:45;7.65;;;2.35;;
41837;SDS011;27511;52.042;5.178;2022-10-22T13:55:26;8.13;;;2.35;;
41837;SDS011;27511;52.042;5.178;2022-10-22T13:57:57;5.70;;;2.30;;
41837;SDS011;27511;52.042;5.178;2022-10-22T14:00:31;5.30;;;2.03;;
41837;SDS011;27511;52.042;5.178;2022-10-22T14:02:57;5.60;;;2.25;;
41837;SDS011;27511;52.042;5.178;2022-10-22T14:05:23;6.65;;;1.77;;
41837;SDS011;27511;52.042;5.178;2022-10-22T14:07:49;5.60;;;1.70;;
41837;SDS011;27511;52.042;5.178;2022-10-22T14:10:17;7.35;;;2.45;;
41837;SDS011;27511;52.042;5.178;2022-10-22T14:12:47;5.78;;;2.38;;
41837;SDS011;27511;52.042;5.178;2022-10-22T14:15:14;7.72;;;2.22;;
41837;SDS011;27511;52.042;5.178;2022-10-22T14:17:41;7.18;;;2.08;;
41837;SDS011;27511;52.042;5.178;2022-10-22T14:20:17;5.55;;;2.40;;
41837;SDS011;27511;52.042;5.178;2022-10-22T14:22:45;8.73;;;1.92;;
41837;SDS011;27511;52.042;5.178;2022-10-22T14:25:13;7.50;;;1.95;;
41837;SDS011;27511;52.042;5.178;2022-10-22T14:27:43;7.28;;;2.38;;
41837;SDS011;27511;52.042;5.178;2022-10-22T14:30:16;13.43;;;2.40;;
41837;SDS011;27511;52.042;5.178;2022-10-22T14:32:43;4.50;;;1.70;;
41837;SDS011;27511;52.042;5.178;2022-10-22T14:35:13;5.72;;;1.70;;
41837;SDS011;27511;52.042;5.178;2022-10-22T14:37:40;3.15;;;1.63;;
41837;SDS011;27511;52.042;5.178;2022-10-22T14:40:06;7.28;;;1.40;;
41837;SDS011;27511;52.042;5.178;2022-10-22T14:42:33;5.90;;;1.60;;
41837;SDS011;27511;52.042;5.178;2022-10-22T14:45:04;7.35;;;1.50;;
41837;SDS011;27511;52.042;5.178;2022-10-22T14:47:31;6.45;;;1.75;;
41837;SDS011;27511;52.042;5.178;2022-10-22T14:49:56;6.18;;;1.85;;
41837;SDS011;27511;52.042;5.178;2022-10-22T14:52:22;5.53;;;1.42;;
41837;SDS011;27511;52.042;5.178;2022-10-22T14:54:47;5.97;;;2.00;;
41837;SDS011;27511;52.042;5.178;2022-10-22T14:57:13;5.60;;;1.80;;
41837;SDS011;27511;52.042;5.178;2022-10-22T14:59:40;6.75;;;1.40;;
41837;SDS011;27511;52.042;5.178;2022-10-22T15:02:07;5.63;;;1.55;;
41837;SDS011;27511;52.042;5.178;2022-10-22T15:04:36;9.80;;;2.17;;
41837;SDS011;27511;52.042;5.178;2022-10-22T15:07:01;6.60;;;1.90;;
41837;SDS011;27511;52.042;5.178;2022-10-22T15:09:27;4.70;;;2.00;;
41837;SDS011;27511;52.042;5.178;2022-10-22T15:11:53;6.50;;;1.77;;
41837;SDS011;27511;52.042;5.178;2022-10-22T15:14:18;4.63;;;1.85;;
41837;SDS011;27511;52.042;5.178;2022-10-22T15:16:44;7.05;;;2.05;;
41837;SDS011;27511;52.042;5.178;2022-10-22T15:19:09;7.07;;;2.08;;
41837;SDS011;27511;52.042;5.178;2022-10-22T15:21:35;8.25;;;1.95;;
41837;SDS011;27511;52.042;5.178;2022-10-22T15:24:00;3.15;;;1.55;;
41837;SDS011;27511;52.042;5.178;2022-10-22T15:26:26;5.40;;;1.70;;
41837;SDS011;27511;52.042;5.178;2022-10-22T15:28:53;5.95;;;2.00;;
41837;SDS011;27511;52.042;5.178;2022-10-22T15:31:39;7.32;;;1.92;;
41837;SDS011;27511;52.042;5.178;2022-10-22T15:34:09;9.13;;;1.70;;
41837;SDS011;27511;52.042;5.178;2022-10-22T15:36:34;7.03;;;1.73;;
41837;SDS011;27511;52.042;5.178;2022-10-22T15:39:04;5.68;;;1.63;;
41837;SDS011;27511;52.042;5.178;2022-10-22T15:41:31;7.68;;;2.17;;
41837;SDS011;27511;52.042;5.178;2022-10-22T15:43:57;9.65;;;2.10;;
41837;SDS011;27511;52.042;5.178;2022-10-22T15:46:22;5.05;;;1.80;;
41837;SDS011;27511;52.042;5.178;2022-10-22T15:48:49;7.32;;;1.83;;
41837;SDS011;27511;52.042;5.178;2022-10-22T15:51:17;6.32;;;1.83;;
41837;SDS011;27511;52.042;5.178;2022-10-22T15:53:47;7.22;;;1.65;;
41837;SDS011;27511;52.042;5.178;2022-10-22T15:56:16;6.00;;;1.75;;
41837;SDS011;27511;52.042;5.178;2022-10-22T15:58:41;7.78;;;2.40;;
41837;SDS011;27511;52.042;5.178;2022-10-22T16:01:08;10.40;;;2.00;;
41837;SDS011;27511;52.042;5.178;2022-10-22T16:03:35;5.68;;;1.98;;
41837;SDS011;27511;52.042;5.178;2022-10-22T16:06:01;6.00;;;2.47;;
41837;SDS011;27511;52.042;5.178;2022-10-22T16:08:28;5.63;;;2.10;;
41837;SDS011;27511;52.042;5.178;2022-10-22T16:10:53;7.28;;;2.53;;
41837;SDS011;27511;52.042;5.178;2022-10-22T16:13:19;5.97;;;2.20;;
41837;SDS011;27511;52.042;5.178;2022-10-22T16:15:47;6.07;;;2.17;;
41837;SDS011;27511;52.042;5.178;2022-10-22T16:18:13;5.47;;;1.75;;
41837;SDS011;27511;52.042;5.178;2022-10-22T16:20:39;5.43;;;1.98;;
41837;SDS011;27511;52.042;5.178;2022-10-22T16:23:05;5.60;;;2.40;;
41837;SDS011;27511;52.042;5.178;2022-10-22T16:25:36;4.07;;;2.08;;
41837;SDS011;27511;52.042;5.178;2022-10-22T16:28:02;4.93;;;1.80;;
41837;SDS011;27511;52.042;5.178;2022-10-22T16:30:28;9.02;;;2.10;;
41837;SDS011;27511;52.042;5.178;2022-10-22T16:32:56;3.65;;;1.90;;
41837;SDS011;27511;52.042;5.178;2022-10-22T16:35:21;5.30;;;2.40;;